createdAt,value
2023-04-25T00:01:51.060Z,8.74
2023-04-25T00:05:22.968Z,8.65
2023-04-25T00:08:55.655Z,8.57
2023-04-25T00:12:28.664Z,8.47
2023-04-25T00:15:59.900Z,8.42
2023-04-25T00:19:45.217Z,8.32
2023-04-25T00:22:56.943Z,8.29
2023-04-25T00:26:44.444Z,8.22
2023-04-25T00:30:15.661Z,8.09
2023-04-25T00:33:55.719Z,7.99
2023-04-25T00:37:43.237Z,7.99
2023-04-25T00:41:23.338Z,7.90
2023-04-25T00:44:46.311Z,7.86
2023-04-25T00:48:34.139Z,7.86
2023-04-25T00:52:15.399Z,7.87
2023-04-25T00:55:59.471Z,7.87
2023-04-25T00:59:46.852Z,7.87
2023-04-25T01:02:54.274Z,7.87
2023-04-25T01:06:33.373Z,7.92
2023-04-25T01:10:19.847Z,7.91
2023-04-25T01:13:49.236Z,7.88
2023-04-25T01:17:22.820Z,7.83
2023-04-25T01:20:37.497Z,7.78
2023-04-25T01:24:03.780Z,7.76
2023-04-25T01:27:51.287Z,7.68
2023-04-25T01:31:29.487Z,7.65
2023-04-25T01:35:09.358Z,7.63
2023-04-25T01:38:44.289Z,7.56
2023-04-25T01:42:02.078Z,7.50
2023-04-25T01:45:43.075Z,7.47
2023-04-25T01:49:30.831Z,7.40
2023-04-25T01:53:09.561Z,7.41
2023-04-25T01:56:31.888Z,7.42
2023-04-25T02:00:00.111Z,7.55
2023-04-25T02:03:25.085Z,7.56
2023-04-25T02:06:57.497Z,7.56
2023-04-25T02:10:45.071Z,7.47
2023-04-25T02:14:31.578Z,7.37
2023-04-25T02:18:29.767Z,7.37
2023-04-25T02:21:53.093Z,7.40
2023-04-25T02:25:40.625Z,7.42
2023-04-25T02:29:28.245Z,7.39
2023-04-25T02:33:15.673Z,7.36
2023-04-25T02:37:03.166Z,7.30
2023-04-25T02:40:26.204Z,7.29
2023-04-25T02:44:13.722Z,7.26
2023-04-25T02:47:54.700Z,7.19
2023-04-25T02:51:23.451Z,7.09
2023-04-25T02:54:52.166Z,7.07
2023-04-25T02:58:09.350Z,7.00
2023-04-25T03:01:42.235Z,6.97
2023-04-25T03:05:15.061Z,6.95
2023-04-25T03:08:41.934Z,6.91
2023-04-25T03:12:20.315Z,6.91
2023-04-25T03:15:41.594Z,6.86
2023-04-25T03:19:22.796Z,6.81
2023-04-25T03:22:55.340Z,6.83
2023-04-25T03:26:25.603Z,6.88
2023-04-25T03:30:11.971Z,6.84
2023-04-25T03:33:36.636Z,6.83
2023-04-25T03:37:14.448Z,6.88
2023-04-25T03:40:43.690Z,6.83
2023-04-25T03:44:24.894Z,6.81
2023-04-25T03:47:49.779Z,6.78
2023-04-25T03:51:29.863Z,6.70
2023-04-25T03:54:53.517Z,6.74
2023-04-25T03:58:35.501Z,6.83
2023-04-25T04:02:03.448Z,6.86
2023-04-25T04:05:30.149Z,6.93
2023-04-25T04:08:52.671Z,7.06
2023-04-25T04:12:21.699Z,7.17
2023-04-25T04:16:00.304Z,7.22
2023-04-25T04:19:48.745Z,7.44
2023-04-25T04:23:11.271Z,7.58
2023-04-25T04:26:38.873Z,7.54
2023-04-25T04:30:22.387Z,7.65
2023-04-25T04:33:58.596Z,7.75
2023-04-25T04:37:46.313Z,7.81
2023-04-25T04:41:34.407Z,7.80
2023-04-25T04:45:20.970Z,7.95
2023-04-25T04:49:14.321Z,8.19
2023-04-25T04:53:01.068Z,8.42
2023-04-25T04:56:44.283Z,8.63
2023-04-25T05:00:30.699Z,8.70
2023-04-25T05:04:09.748Z,8.82
2023-04-25T05:07:49.956Z,8.88
2023-04-25T05:11:33.020Z,8.89
2023-04-25T05:15:15.580Z,9.01
2023-04-25T05:18:53.021Z,9.19
2023-04-25T05:22:41.891Z,9.35
2023-04-25T05:26:34.354Z,9.51
2023-04-25T05:30:15.046Z,9.72
2023-04-25T05:33:46.500Z,9.67
2023-04-25T05:37:26.677Z,9.88
2023-04-25T05:41:14.126Z,9.89
2023-04-25T05:45:06.239Z,9.78
2023-04-25T05:48:45.495Z,9.85
2023-04-25T05:52:38.897Z,9.92
2023-04-25T05:56:21.522Z,10.04
2023-04-25T06:00:12.274Z,10.27
2023-04-25T06:03:52.052Z,10.30
2023-04-25T06:07:30.863Z,10.33
2023-04-25T06:10:59.232Z,10.18
2023-04-25T06:14:22.030Z,10.46
2023-04-25T06:18:00.477Z,10.68
2023-04-25T06:21:48.227Z,10.70
2023-04-25T06:25:04.730Z,10.98
2023-04-25T06:28:44.585Z,11.11
2023-04-25T06:32:12.682Z,11.09
2023-04-25T06:36:01.476Z,11.03
2023-04-25T06:39:46.260Z,11.36
2023-04-25T06:43:34.855Z,11.45
2023-04-25T06:47:14.138Z,11.30
2023-04-25T06:50:35.316Z,11.34
2023-04-25T06:54:06.021Z,11.53
2023-04-25T06:57:41.977Z,11.47
2023-04-25T07:01:15.587Z,11.55
2023-04-25T07:05:04.188Z,12.10
2023-04-25T07:08:35.698Z,12.41
2023-04-25T07:12:22.226Z,12.53
2023-04-25T07:16:02.201Z,12.48
2023-04-25T07:19:49.908Z,12.43
2023-04-25T07:23:30.391Z,12.50
2023-04-25T07:27:10.671Z,12.58
2023-04-25T07:30:58.625Z,12.81
2023-04-25T07:34:44.943Z,13.15
2023-04-25T07:38:11.087Z,13.47
2023-04-25T07:41:53.061Z,13.64
2023-04-25T07:45:19.494Z,14.29
2023-04-25T07:49:01.262Z,14.10
2023-04-25T07:52:38.592Z,14.06
2023-04-25T07:56:41.848Z,13.91
2023-04-25T08:00:31.944Z,14.15
2023-04-25T08:04:19.806Z,14.07
2023-04-25T08:08:10.635Z,13.81
2023-04-25T08:11:47.152Z,14.04
2023-04-25T08:15:34.304Z,14.10
2023-04-25T08:19:22.384Z,13.75
2023-04-25T08:22:57.595Z,13.92
2023-04-25T08:26:37.037Z,14.45
2023-04-25T08:30:09.611Z,14.61
2023-04-25T08:33:49.967Z,14.50
2023-04-25T08:37:40.641Z,14.55
2023-04-25T08:41:19.698Z,14.43
2023-04-25T08:45:07.250Z,14.55
2023-04-25T08:48:55.734Z,14.67
2023-04-25T08:52:44.564Z,15.19
2023-04-25T08:56:32.211Z,15.32
2023-04-25T09:00:08.323Z,15.44
2023-04-25T09:03:38.863Z,15.59
2023-04-25T09:07:05.886Z,15.59
2023-04-25T09:10:53.368Z,15.52
2023-04-25T09:14:53.332Z,14.90
2023-04-25T09:18:13.947Z,15.06
2023-04-25T09:21:52.612Z,15.32
2023-04-25T09:25:40.129Z,15.42
2023-04-25T09:29:15.603Z,15.36
2023-04-25T09:33:09.877Z,15.15
2023-04-25T09:37:07.147Z,15.10
2023-04-25T09:41:10.550Z,15.69
2023-04-25T09:45:01.005Z,15.72
2023-04-25T09:48:48.466Z,15.37
2023-04-25T09:52:39.261Z,14.96
2023-04-25T09:56:23.080Z,14.90
2023-04-25T10:00:07.468Z,15.35
2023-04-25T10:03:57.868Z,14.83
2023-04-25T10:07:57.872Z,14.66
2023-04-25T10:11:45.686Z,14.40
2023-04-25T10:15:25.434Z,14.34
2023-04-25T10:19:06.086Z,14.25
2023-04-25T10:22:53.919Z,14.53
2023-04-25T10:26:12.458Z,14.65
2023-04-25T10:30:06.616Z,14.61
2023-04-25T10:33:58.051Z,14.34
2023-04-25T10:37:45.568Z,14.54
2023-04-25T10:41:45.396Z,14.44
2023-04-25T10:45:31.986Z,14.61
2023-04-25T10:49:31.640Z,14.27
2023-04-25T10:53:12.486Z,14.06
2023-04-25T10:57:00.477Z,14.20
2023-04-25T11:00:57.494Z,13.91
2023-04-25T11:04:44.331Z,13.49
2023-04-25T11:08:24.938Z,13.23
2023-04-25T11:11:50.087Z,13.57
2023-04-25T11:15:16.579Z,13.89
2023-04-25T11:18:48.447Z,14.11
2023-04-25T11:22:36.604Z,14.45
2023-04-25T11:26:09.893Z,14.70
2023-04-25T11:29:40.470Z,15.03
2023-04-25T11:33:18.591Z,15.51
2023-04-25T11:36:54.674Z,15.44
2023-04-25T11:40:38.684Z,14.91
2023-04-25T11:44:25.036Z,15.07
2023-04-25T11:48:02.602Z,14.62
2023-04-25T11:51:35.738Z,14.31
2023-04-25T11:54:57.124Z,14.06
2023-04-25T11:58:43.266Z,13.67
2023-04-25T12:02:31.382Z,12.93
2023-04-25T12:06:10.503Z,12.41
2023-04-25T12:10:01.209Z,12.14
2023-04-25T12:13:24.732Z,11.91
2023-04-25T12:17:06.630Z,11.98
2023-04-25T12:20:49.809Z,12.03
2023-04-25T12:24:31.635Z,12.49
2023-04-25T12:27:45.525Z,13.00
2023-04-25T12:31:32.768Z,13.42
2023-04-25T12:35:17.971Z,13.77
2023-04-25T12:39:02.020Z,13.68
2023-04-25T12:42:28.209Z,13.59
2023-04-25T12:45:57.977Z,13.58
2023-04-25T12:49:36.630Z,13.18
2023-04-25T12:53:17.993Z,12.51
2023-04-25T12:56:59.497Z,12.11
2023-04-25T13:00:16.247Z,12.26
2023-04-25T13:04:04.767Z,12.30
2023-04-25T13:07:46.033Z,12.53
2023-04-25T13:11:26.380Z,12.73
2023-04-25T13:15:01.765Z,12.88
2023-04-25T13:18:27.892Z,13.16
2023-04-25T13:22:05.723Z,13.33
2023-04-25T13:25:19.468Z,13.69
2023-04-25T13:28:39.683Z,13.94
2023-04-25T13:32:27.751Z,14.22
2023-04-25T13:36:03.062Z,14.50
2023-04-25T13:39:50.649Z,14.61
2023-04-25T13:43:31.138Z,14.07
2023-04-25T13:47:10.806Z,13.22
2023-04-25T13:50:42.097Z,12.63
2023-04-25T13:54:30.461Z,11.91
2023-04-25T13:58:12.565Z,11.65
2023-04-25T14:01:45.617Z,11.32
2023-04-25T14:04:56.224Z,11.35
2023-04-25T14:08:42.988Z,11.71
2023-04-25T14:11:44.677Z,12.17
2023-04-25T14:15:22.688Z,12.52
2023-04-25T14:18:43.965Z,13.02
2023-04-25T14:21:33.798Z,13.34
2023-04-25T14:25:16.103Z,13.14
2023-04-25T14:28:20.384Z,13.28
2023-04-25T14:31:39.923Z,13.17
2023-04-25T14:35:28.138Z,12.70
2023-04-25T14:39:03.098Z,12.11
2023-04-25T14:42:33.443Z,11.02
2023-04-25T14:46:12.026Z,10.73
2023-04-25T14:50:00.575Z,10.26
2023-04-25T14:53:05.202Z,10.31
2023-04-25T14:56:19.121Z,10.37
2023-04-25T14:59:59.638Z,10.40
2023-04-25T15:03:18.834Z,10.57
2023-04-25T15:06:59.125Z,10.66
2023-04-25T15:10:13.905Z,10.88
2023-04-25T15:13:49.721Z,11.13
2023-04-25T15:17:25.764Z,11.29
2023-04-25T15:20:57.315Z,11.25
2023-04-25T15:24:22.119Z,11.33
2023-04-25T15:27:45.449Z,11.15
2023-04-25T15:31:23.442Z,10.97
2023-04-25T15:34:44.835Z,10.94
2023-04-25T15:38:25.905Z,10.95
2023-04-25T15:42:08.810Z,10.86
2023-04-25T15:45:40.660Z,10.68
2023-04-25T15:48:40.480Z,10.72
2023-04-25T15:52:24.802Z,10.82
2023-04-25T15:56:13.847Z,10.93
2023-04-25T15:59:30.330Z,10.99
2023-04-25T16:03:11.068Z,10.99
2023-04-25T16:07:00.113Z,11.11
2023-04-25T16:10:41.948Z,11.05
2023-04-25T16:14:31.199Z,11.12
2023-04-25T16:18:19.412Z,11.30
2023-04-25T16:21:49.685Z,11.31
2023-04-25T16:25:29.967Z,11.21
2023-04-25T16:29:03.126Z,11.08
2023-04-25T16:32:49.851Z,10.89
2023-04-25T16:36:03.402Z,10.89
2023-04-25T16:39:51.502Z,10.92
2023-04-25T16:43:24.093Z,10.98
2023-04-25T16:47:15.706Z,11.07
2023-04-25T16:50:51.539Z,10.98
2023-04-25T16:54:30.543Z,10.88
2023-04-25T16:57:23.474Z,10.79
2023-04-25T17:00:57.332Z,10.85
2023-04-25T17:04:04.076Z,10.91
2023-04-25T17:07:32.881Z,10.91
2023-04-25T17:11:11.452Z,10.85
2023-04-25T17:14:25.619Z,10.65
2023-04-25T17:18:12.609Z,10.49
2023-04-25T17:21:59.822Z,10.30
2023-04-25T17:25:42.089Z,10.25
2023-04-25T17:29:13.196Z,10.15
2023-04-25T17:32:42.799Z,10.07
2023-04-25T17:36:04.296Z,9.89
2023-04-25T17:39:06.148Z,9.76
2023-04-25T17:42:34.961Z,9.77
2023-04-25T17:46:06.719Z,9.61
2023-04-25T17:49:36.004Z,9.56
2023-04-25T17:53:02.955Z,9.49
2023-04-25T17:56:27.599Z,9.35
2023-04-25T18:00:15.296Z,9.37
2023-04-25T18:03:47.356Z,9.31
2023-04-25T18:07:18.652Z,9.21
2023-04-25T18:10:13.450Z,9.00
2023-04-25T18:13:16.263Z,8.89
2023-04-25T18:16:35.927Z,8.54
2023-04-25T18:20:04.789Z,8.54
2023-04-25T18:23:09.948Z,8.44
2023-04-25T18:25:41.192Z,8.35
2023-04-25T18:28:11.088Z,8.33
2023-04-25T18:31:32.378Z,8.29
2023-04-25T18:35:10.501Z,8.18
2023-04-25T18:37:42.371Z,8.07
2023-04-25T18:40:17.833Z,8.01
2023-04-25T18:44:05.665Z,7.92
2023-04-25T18:46:47.472Z,7.53
2023-04-25T18:50:14.899Z,7.34
2023-04-25T18:54:02.140Z,7.17
2023-04-25T18:56:57.165Z,7.05
2023-04-25T19:00:17.204Z,6.96
2023-04-25T19:03:44.396Z,6.88
2023-04-25T19:07:14.439Z,6.79
2023-04-25T19:10:43.876Z,6.63
2023-04-25T19:13:32.398Z,6.51
2023-04-25T19:17:03.563Z,6.45
2023-04-25T19:20:46.220Z,6.34
2023-04-25T19:24:24.467Z,6.16
2023-04-25T19:28:11.028Z,6.00
2023-04-25T19:32:01.605Z,5.90
2023-04-25T19:34:50.575Z,5.78
2023-04-25T19:37:41.816Z,5.74
2023-04-25T19:41:31.705Z,5.65
2023-04-25T19:45:02.958Z,5.59
2023-04-25T19:48:02.854Z,5.53
2023-04-25T19:51:10.956Z,5.53
2023-04-25T19:54:29.675Z,5.51
2023-04-25T19:58:07.332Z,5.53
2023-04-25T20:01:28.308Z,5.56
2023-04-25T20:04:25.702Z,5.56
2023-04-25T20:07:35.179Z,5.70
2023-04-25T20:11:06.822Z,5.76
2023-04-25T20:14:38.080Z,5.77
2023-04-25T20:18:08.701Z,5.63
2023-04-25T20:21:38.223Z,5.61
2023-04-25T20:24:49.630Z,5.59
2023-04-25T20:27:52.424Z,5.59
2023-04-25T20:30:29.154Z,5.62
2023-04-25T20:33:42.473Z,5.71
2023-04-25T20:37:20.942Z,5.84
2023-04-25T20:40:26.512Z,5.96
2023-04-25T20:43:13.584Z,6.06
2023-04-25T20:46:41.611Z,6.13
2023-04-25T20:50:14.786Z,6.16
2023-04-25T20:53:03.444Z,6.15
2023-04-25T20:56:30.816Z,6.20
2023-04-25T21:00:07.678Z,6.20
2023-04-25T21:03:48.654Z,6.25
2023-04-25T21:07:16.679Z,6.29
2023-04-25T21:10:24.640Z,6.33
2023-04-25T21:14:12.442Z,6.38
2023-04-25T21:17:44.210Z,6.43
2023-04-25T21:21:12.454Z,6.45
2023-04-25T21:24:59.055Z,6.49
2023-04-25T21:28:46.958Z,6.50
2023-04-25T21:32:26.222Z,6.47
2023-04-25T21:36:07.068Z,6.57
2023-04-25T21:39:53.822Z,6.42
2023-04-25T21:43:42.401Z,6.28
2023-04-25T21:47:30.221Z,6.38
2023-04-25T21:51:17.121Z,6.31
2023-04-25T21:55:05.548Z,6.40
2023-04-25T21:58:53.561Z,6.27
2023-04-25T22:02:31.718Z,6.32
2023-04-25T22:06:18.814Z,6.43
2023-04-25T22:10:06.804Z,6.42
2023-04-25T22:13:40.262Z,6.47
2023-04-25T22:17:10.906Z,6.48
2023-04-25T22:20:51.371Z,6.53
2023-04-25T22:24:39.102Z,6.54
2023-04-25T22:28:09.070Z,6.53
2023-04-25T22:31:41.612Z,6.52
2023-04-25T22:35:04.393Z,6.39
2023-04-25T22:38:43.931Z,6.31
2023-04-25T22:41:58.331Z,6.23
2023-04-25T22:45:46.196Z,6.10
2023-04-25T22:49:34.081Z,6.01
2023-04-25T22:53:12.474Z,5.86
2023-04-25T22:56:29.565Z,5.76
2023-04-25T22:59:53.375Z,5.72
2023-04-25T23:03:37.014Z,5.64
2023-04-25T23:06:37.143Z,5.51
2023-04-25T23:09:36.683Z,5.48
2023-04-25T23:13:24.266Z,5.42
2023-04-25T23:17:02.783Z,5.35
2023-04-25T23:20:27.561Z,5.34
2023-04-25T23:24:15.350Z,5.32
2023-04-25T23:27:42.939Z,5.28
2023-04-25T23:31:01.830Z,5.22
2023-04-25T23:34:12.082Z,5.24
2023-04-25T23:37:58.128Z,5.15
2023-04-25T23:41:25.083Z,5.06
2023-04-25T23:44:58.294Z,4.96
2023-04-25T23:48:38.700Z,4.92
2023-04-25T23:51:34.544Z,5.04
2023-04-25T23:55:14.945Z,5.03
2023-04-25T23:58:57.499Z,4.90
